createdAt,value
2019-03-13T00:01:28.316Z,5.30
2019-03-13T00:03:59.224Z,5.37
2019-03-13T00:06:30.049Z,5.31
2019-03-13T00:09:04.987Z,5.18
2019-03-13T00:11:37.041Z,5.15
2019-03-13T00:14:08.033Z,5.14
2019-03-13T00:16:38.890Z,5.23
2019-03-13T00:19:09.696Z,5.27
2019-03-13T00:21:45.013Z,5.33
2019-03-13T00:24:16.281Z,5.32
2019-03-13T00:26:48.195Z,5.36
2019-03-13T00:29:18.930Z,5.37
2019-03-13T00:31:49.732Z,5.38
2019-03-13T00:34:22.353Z,5.45
2019-03-13T00:36:53.278Z,5.48
2019-03-13T00:39:25.724Z,5.44
2019-03-13T00:41:56.536Z,5.56
2019-03-13T00:44:29.439Z,5.77
2019-03-13T00:47:00.283Z,5.92
2019-03-13T00:49:37.150Z,5.88
2019-03-13T00:52:07.927Z,5.86
2019-03-13T00:54:39.278Z,5.82
2019-03-13T00:57:12.861Z,5.77
2019-03-13T00:59:43.965Z,5.76
2019-03-13T01:02:32.317Z,5.70
2019-03-13T01:05:10.163Z,5.64
2019-03-13T01:07:46.455Z,5.56
2019-03-13T01:10:13.620Z,5.53
2019-03-13T01:12:44.533Z,5.47
2019-03-13T01:15:15.466Z,5.40
2019-03-13T01:17:46.706Z,5.37
2019-03-13T01:20:17.493Z,5.33
2019-03-13T01:22:51.061Z,5.29
2019-03-13T01:25:22.255Z,5.21
2019-03-13T01:27:52.983Z,5.13
2019-03-13T01:30:23.881Z,5.09
2019-03-13T01:32:57.754Z,5.03
2019-03-13T01:35:32.602Z,4.95
2019-03-13T01:38:08.491Z,4.88
2019-03-13T01:40:39.805Z,4.80
2019-03-13T01:43:10.727Z,4.73
2019-03-13T01:45:41.464Z,4.67
2019-03-13T01:48:12.757Z,4.63
2019-03-13T01:50:43.506Z,4.57
2019-03-13T01:53:14.878Z,4.53
2019-03-13T01:55:46.740Z,4.46
2019-03-13T01:58:19.021Z,4.41
2019-03-13T02:00:51.424Z,4.39
2019-03-13T02:03:22.216Z,4.35
2019-03-13T02:05:55.962Z,4.37
2019-03-13T02:08:28.173Z,4.34
2019-03-13T02:10:58.938Z,4.36
2019-03-13T02:13:33.135Z,4.37
2019-03-13T02:16:04.626Z,4.34
2019-03-13T02:18:35.414Z,4.33
2019-03-13T02:21:06.209Z,4.29
2019-03-13T02:23:37.512Z,4.35
2019-03-13T02:26:08.421Z,4.40
2019-03-13T02:28:39.589Z,4.42
2019-03-13T02:31:11.442Z,4.50
2019-03-13T02:33:42.311Z,4.57
2019-03-13T02:36:13.623Z,4.59
2019-03-13T02:38:44.450Z,4.57
2019-03-13T02:41:16.546Z,4.57
2019-03-13T02:43:47.728Z,4.56
2019-03-13T02:46:18.468Z,4.55
2019-03-13T02:48:49.370Z,4.53
2019-03-13T02:51:20.606Z,4.55
2019-03-13T02:53:52.366Z,4.57
2019-03-13T02:56:23.788Z,4.61
2019-03-13T02:58:55.246Z,4.60
2019-03-13T03:01:42.100Z,4.62
2019-03-13T03:04:13.476Z,4.66
2019-03-13T03:06:44.893Z,4.67
2019-03-13T03:09:15.735Z,4.67
2019-03-13T03:11:46.618Z,4.64
2019-03-13T03:14:17.749Z,4.61
2019-03-13T03:16:48.567Z,4.56
2019-03-13T03:19:19.458Z,4.55
2019-03-13T03:21:50.360Z,4.51
2019-03-13T03:24:21.189Z,4.48
2019-03-13T03:26:52.492Z,4.47
2019-03-13T03:29:23.466Z,4.48
2019-03-13T03:31:54.437Z,4.50
2019-03-13T03:34:25.648Z,4.55
2019-03-13T03:36:56.451Z,4.57
2019-03-13T03:39:27.341Z,4.53
2019-03-13T03:41:58.189Z,4.52
2019-03-13T03:44:29.062Z,4.48
2019-03-13T03:47:00.415Z,4.44
2019-03-13T03:49:31.210Z,4.37
2019-03-13T03:52:02.052Z,4.24
2019-03-13T03:54:34.444Z,3.97
2019-03-13T03:57:05.282Z,3.80
2019-03-13T03:59:36.137Z,3.71
2019-03-13T04:02:07.526Z,3.64
2019-03-13T04:04:38.535Z,3.62
2019-03-13T04:07:09.471Z,3.53
2019-03-13T04:09:40.692Z,3.50
2019-03-13T04:12:16.162Z,3.45
2019-03-13T04:14:46.977Z,3.41
2019-03-13T04:17:18.061Z,3.40
2019-03-13T04:19:48.837Z,3.35
2019-03-13T04:22:22.061Z,3.33
2019-03-13T04:24:52.889Z,3.31
2019-03-13T04:27:23.819Z,3.29
2019-03-13T04:29:55.064Z,3.31
2019-03-13T04:32:26.317Z,3.33
2019-03-13T04:34:57.489Z,3.31
2019-03-13T04:37:28.297Z,3.28
2019-03-13T04:39:59.104Z,3.29
2019-03-13T04:42:29.863Z,3.32
2019-03-13T04:45:00.725Z,3.31
2019-03-13T04:47:35.118Z,3.30
2019-03-13T04:50:07.530Z,3.26
2019-03-13T04:52:39.471Z,3.19
2019-03-13T04:55:13.474Z,3.09
2019-03-13T04:57:44.367Z,3.03
2019-03-13T05:00:15.496Z,2.93
2019-03-13T05:02:49.074Z,2.92
2019-03-13T05:06:02.859Z,2.90
2019-03-13T05:09:00.425Z,2.91
2019-03-13T05:11:32.702Z,2.92
2019-03-13T05:14:03.500Z,2.96
2019-03-13T05:16:34.429Z,2.91
2019-03-13T05:19:05.331Z,2.93
2019-03-13T05:21:36.166Z,2.92
2019-03-13T05:24:07.347Z,2.92
2019-03-13T05:26:38.949Z,2.94
2019-03-13T05:29:10.279Z,2.95
2019-03-13T05:31:41.381Z,2.91
2019-03-13T05:34:23.352Z,2.91
2019-03-13T05:37:24.438Z,2.91
2019-03-13T05:39:58.765Z,2.86
2019-03-13T05:42:30.097Z,2.86
2019-03-13T05:45:02.874Z,2.83
2019-03-13T05:47:34.065Z,2.78
2019-03-13T05:50:06.116Z,2.72
2019-03-13T05:52:36.925Z,2.74
2019-03-13T05:55:08.204Z,2.69
2019-03-13T05:57:39.312Z,2.63
2019-03-13T06:00:10.236Z,2.55
2019-03-13T06:02:41.587Z,2.48
2019-03-13T06:05:12.520Z,2.42
2019-03-13T06:07:43.356Z,2.39
2019-03-13T06:10:14.342Z,2.40
2019-03-13T06:12:45.135Z,2.41
2019-03-13T06:15:18.540Z,2.47
2019-03-13T06:17:49.386Z,2.51
2019-03-13T06:20:20.176Z,2.55
2019-03-13T06:22:53.880Z,2.52
2019-03-13T06:25:26.280Z,2.49
2019-03-13T06:27:57.382Z,2.44
2019-03-13T06:30:28.825Z,2.48
2019-03-13T06:33:00.216Z,2.56
2019-03-13T06:35:31.060Z,2.59
2019-03-13T06:38:01.851Z,2.63
2019-03-13T06:40:33.327Z,2.66
2019-03-13T06:43:04.481Z,2.68
2019-03-13T06:45:35.285Z,2.70
2019-03-13T06:48:09.107Z,2.72
2019-03-13T06:50:42.824Z,2.72
2019-03-13T06:53:18.695Z,2.77
2019-03-13T06:55:52.294Z,2.88
2019-03-13T06:58:38.080Z,3.08
2019-03-13T07:01:33.964Z,3.18
2019-03-13T07:04:22.599Z,3.21
2019-03-13T07:07:21.544Z,3.31
2019-03-13T07:10:08.779Z,3.38
2019-03-13T07:13:00.927Z,3.42
2019-03-13T07:16:02.663Z,3.44
2019-03-13T07:18:59.937Z,3.45
2019-03-13T07:21:49.656Z,3.48
2019-03-13T07:24:30.339Z,3.50
2019-03-13T07:27:28.879Z,3.51
2019-03-13T07:30:11.742Z,3.52
2019-03-13T07:33:01.397Z,3.51
2019-03-13T07:36:06.783Z,3.50
2019-03-13T07:38:56.359Z,3.48
2019-03-13T07:41:45.011Z,3.54
2019-03-13T07:44:40.845Z,3.67
2019-03-13T07:47:21.936Z,3.86
2019-03-13T07:50:14.603Z,4.16
2019-03-13T07:53:10.925Z,4.31
2019-03-13T07:56:00.924Z,4.42
2019-03-13T07:58:56.879Z,4.44
2019-03-13T08:01:36.375Z,4.53
2019-03-13T08:04:14.753Z,4.75
2019-03-13T08:07:10.299Z,4.93
2019-03-13T08:10:04.224Z,5.07
2019-03-13T08:12:54.637Z,5.39
2019-03-13T08:15:53.494Z,5.68
2019-03-13T08:18:43.070Z,5.55
2019-03-13T08:21:52.379Z,5.46
2019-03-13T08:24:33.824Z,5.31
2019-03-13T08:27:32.702Z,5.23
2019-03-13T08:30:22.315Z,5.28
2019-03-13T08:33:12.422Z,5.49
2019-03-13T08:35:57.208Z,5.58
2019-03-13T08:38:45.591Z,5.72
2019-03-13T08:41:28.016Z,5.64
2019-03-13T08:44:19.245Z,5.65
2019-03-13T08:47:07.155Z,5.62
2019-03-13T08:49:57.127Z,5.57
2019-03-13T08:52:29.820Z,5.50
2019-03-13T08:55:25.617Z,5.57
2019-03-13T08:58:07.528Z,5.62
2019-03-13T09:01:03.466Z,5.63
2019-03-13T09:03:53.529Z,5.53
2019-03-13T09:06:49.217Z,5.72
2019-03-13T09:09:38.048Z,5.67
2019-03-13T09:12:30.437Z,5.60
2019-03-13T09:15:20.822Z,5.41
2019-03-13T09:18:06.669Z,5.20
2019-03-13T09:20:52.227Z,5.19
2019-03-13T09:23:40.345Z,5.23
2019-03-13T09:26:29.380Z,5.42
2019-03-13T09:29:17.753Z,5.54
2019-03-13T09:32:04.166Z,5.48
2019-03-13T09:34:56.810Z,5.40
2019-03-13T09:37:53.906Z,5.55
2019-03-13T09:40:49.818Z,5.61
2019-03-13T09:43:45.851Z,5.48
2019-03-13T09:46:33.442Z,5.32
2019-03-13T09:49:26.607Z,5.17
2019-03-13T09:52:13.732Z,5.17
2019-03-13T09:55:04.667Z,5.54
2019-03-13T09:58:10.132Z,6.54
2019-03-13T10:01:11.042Z,7.33
2019-03-13T10:04:11.925Z,8.04
2019-03-13T10:06:57.005Z,8.10
2019-03-13T10:09:47.031Z,8.17
2019-03-13T10:12:29.730Z,8.38
2019-03-13T10:15:28.338Z,8.59
2019-03-13T10:18:26.993Z,8.51
2019-03-13T10:21:23.849Z,8.16
2019-03-13T10:24:18.848Z,7.59
2019-03-13T10:27:12.916Z,7.18
2019-03-13T10:29:49.580Z,6.74
2019-03-13T10:32:27.191Z,6.28
2019-03-13T10:35:14.401Z,6.19
2019-03-13T10:38:16.541Z,6.22
2019-03-13T10:41:23.219Z,6.47
2019-03-13T10:44:12.813Z,6.64
2019-03-13T10:47:10.198Z,6.45
2019-03-13T10:50:00.465Z,6.23
2019-03-13T10:52:50.153Z,5.98
2019-03-13T10:55:45.784Z,5.74
2019-03-13T10:58:47.966Z,4.88
2019-03-13T11:01:37.586Z,4.05
2019-03-13T11:04:22.690Z,3.61
2019-03-13T11:07:07.430Z,3.25
2019-03-13T11:09:57.153Z,2.98
2019-03-13T11:13:04.997Z,2.99
2019-03-13T11:15:48.035Z,3.00
2019-03-13T11:18:39.250Z,3.11
2019-03-13T11:21:27.109Z,3.18
2019-03-13T11:24:18.359Z,3.26
2019-03-13T11:27:01.254Z,3.67
2019-03-13T11:30:03.729Z,4.09
2019-03-13T11:32:52.386Z,4.25
2019-03-13T11:36:01.130Z,4.31
2019-03-13T11:39:02.348Z,4.26
2019-03-13T11:42:05.478Z,4.28
2019-03-13T11:44:46.103Z,4.37
2019-03-13T11:47:46.031Z,4.48
2019-03-13T11:50:27.208Z,4.64
2019-03-13T11:53:12.038Z,4.81
2019-03-13T11:56:06.986Z,4.91
2019-03-13T11:58:56.954Z,5.09
2019-03-13T12:02:06.785Z,5.31
2019-03-13T12:04:53.093Z,5.46
2019-03-13T12:07:39.850Z,6.16
2019-03-13T12:10:33.862Z,6.45
2019-03-13T12:13:35.400Z,6.54
2019-03-13T12:16:20.657Z,6.46
2019-03-13T12:19:14.705Z,6.29
2019-03-13T12:22:20.083Z,6.09
2019-03-13T12:25:07.493Z,6.03
2019-03-13T12:27:59.836Z,5.90
2019-03-13T12:30:48.321Z,5.88
2019-03-13T12:33:29.288Z,5.74
2019-03-13T12:36:34.335Z,5.60
2019-03-13T12:39:29.292Z,5.20
2019-03-13T12:42:26.708Z,4.92
2019-03-13T12:45:16.467Z,5.12
2019-03-13T12:48:16.600Z,5.46
2019-03-13T12:50:58.937Z,5.78
2019-03-13T12:53:58.316Z,5.92
2019-03-13T12:56:44.140Z,6.11
2019-03-13T12:59:40.166Z,6.21
2019-03-13T13:02:34.759Z,6.24
2019-03-13T13:05:30.757Z,6.44
2019-03-13T13:08:33.290Z,6.51
2019-03-13T13:11:55.012Z,6.54
2019-03-13T13:15:33.828Z,6.48
2019-03-13T13:18:47.623Z,6.41
2019-03-13T13:21:32.249Z,6.53
2019-03-13T13:24:36.037Z,6.49
2019-03-13T13:27:10.547Z,6.40
2019-03-13T13:29:44.396Z,6.44
2019-03-13T13:32:21.222Z,6.45
2019-03-13T13:34:58.179Z,6.50
2019-03-13T13:37:30.537Z,6.83
2019-03-13T13:40:01.937Z,6.97
2019-03-13T13:42:49.123Z,7.12
2019-03-13T13:45:57.346Z,7.00
2019-03-13T13:48:28.378Z,6.89
2019-03-13T13:50:59.262Z,6.79
2019-03-13T13:53:30.040Z,6.74
2019-03-13T13:56:01.559Z,6.64
2019-03-13T13:58:33.421Z,6.49
2019-03-13T14:01:07.379Z,6.40
2019-03-13T14:03:39.821Z,6.39
2019-03-13T14:06:10.614Z,6.35
2019-03-13T14:08:44.450Z,6.22
2019-03-13T14:11:18.619Z,6.31
2019-03-13T14:14:01.838Z,6.39
2019-03-13T14:16:32.785Z,6.50
2019-03-13T14:19:08.949Z,6.67
2019-03-13T14:21:41.327Z,6.82
2019-03-13T14:24:12.162Z,6.80
2019-03-13T14:26:45.102Z,6.80
2019-03-13T14:29:17.179Z,6.77
2019-03-13T14:31:54.913Z,6.75
2019-03-13T14:34:26.024Z,6.65
2019-03-13T14:36:56.893Z,6.48
2019-03-13T14:39:27.902Z,6.31
2019-03-13T14:42:18.578Z,6.21
2019-03-13T14:44:49.716Z,6.19
2019-03-13T14:47:20.511Z,6.13
2019-03-13T14:49:52.017Z,6.10
2019-03-13T14:52:24.380Z,6.09
2019-03-13T14:55:01.749Z,6.12
2019-03-13T14:57:33.491Z,6.15
2019-03-13T15:00:06.328Z,6.22
2019-03-13T15:02:41.763Z,6.24
2019-03-13T15:05:18.865Z,6.30
2019-03-13T15:07:49.794Z,6.30
2019-03-13T15:10:23.513Z,6.26
2019-03-13T15:12:58.671Z,6.23
2019-03-13T15:16:12.100Z,6.16
2019-03-13T15:21:48.302Z,6.11
2019-03-13T15:24:23.917Z,6.09
2019-03-13T15:26:55.224Z,6.05
2019-03-13T15:29:29.048Z,6.03
2019-03-13T15:32:03.272Z,5.98
2019-03-13T15:34:35.682Z,5.98
2019-03-13T15:37:06.454Z,5.92
2019-03-13T15:39:37.970Z,5.92
2019-03-13T15:42:09.311Z,5.93
2019-03-13T15:44:41.480Z,5.92
2019-03-13T15:47:13.290Z,5.94
2019-03-13T15:49:46.651Z,5.94
2019-03-13T15:52:23.384Z,5.89
2019-03-13T15:54:55.522Z,5.84
2019-03-13T15:57:28.552Z,5.84
2019-03-13T16:00:04.665Z,5.81
2019-03-13T16:02:36.827Z,5.79
2019-03-13T16:05:08.191Z,5.75
2019-03-13T16:07:40.581Z,5.75
2019-03-13T16:10:15.351Z,5.71
2019-03-13T16:12:51.808Z,5.70
2019-03-13T16:15:30.271Z,5.66
2019-03-13T16:18:06.233Z,5.67
2019-03-13T16:20:37.150Z,5.64
2019-03-13T16:23:11.250Z,5.64
2019-03-13T16:25:42.540Z,5.62
2019-03-13T16:28:23.131Z,5.58
2019-03-13T16:30:57.496Z,5.56
2019-03-13T16:33:31.259Z,5.51
2019-03-13T16:36:02.538Z,5.46
2019-03-13T16:38:33.442Z,5.42
2019-03-13T16:41:05.109Z,5.40
2019-03-13T16:43:39.097Z,5.39
2019-03-13T16:46:10.312Z,5.34
2019-03-13T16:48:47.369Z,5.30
2019-03-13T16:51:19.550Z,5.27
2019-03-13T16:53:59.263Z,5.24
2019-03-13T16:56:32.596Z,5.22
2019-03-13T16:59:03.506Z,5.20
2019-03-13T17:01:34.592Z,5.16
2019-03-13T17:04:06.589Z,5.16
2019-03-13T17:06:40.659Z,5.12
2019-03-13T17:09:14.584Z,5.09
2019-03-13T17:11:54.277Z,5.06
2019-03-13T17:14:30.397Z,5.04
2019-03-13T17:17:02.036Z,5.00
2019-03-13T17:19:39.647Z,4.97
2019-03-13T17:22:13.673Z,4.93
2019-03-13T17:24:44.560Z,4.93
2019-03-13T17:27:18.716Z,4.94
2019-03-13T17:29:49.672Z,4.93
2019-03-13T17:32:25.420Z,4.92
2019-03-13T17:35:04.108Z,4.88
2019-03-13T17:37:38.854Z,4.88
2019-03-13T17:40:13.301Z,4.91
2019-03-13T17:42:47.111Z,4.93
2019-03-13T17:45:20.649Z,4.92
2019-03-13T17:48:07.318Z,4.94
2019-03-13T17:50:40.029Z,4.95
2019-03-13T17:53:14.202Z,4.95
2019-03-13T17:55:49.641Z,4.97
2019-03-13T17:58:22.672Z,4.98
2019-03-13T18:00:59.768Z,4.99
2019-03-13T18:03:30.892Z,4.98
2019-03-13T18:06:05.563Z,4.93
2019-03-13T18:08:36.539Z,4.91
2019-03-13T18:11:28.964Z,4.91
2019-03-13T18:14:00.452Z,4.91
2019-03-13T18:16:37.323Z,4.90
2019-03-13T18:19:16.389Z,4.89
2019-03-13T18:21:47.512Z,4.91
2019-03-13T18:24:23.276Z,4.87
2019-03-13T18:26:54.383Z,4.84
2019-03-13T18:29:26.888Z,4.80
2019-03-13T18:32:04.420Z,4.72
2019-03-13T18:34:41.266Z,4.58
2019-03-13T18:37:19.245Z,4.43
2019-03-13T18:39:53.490Z,4.33
2019-03-13T18:42:33.932Z,4.24
2019-03-13T18:45:05.534Z,4.21
2019-03-13T18:47:39.523Z,4.19
2019-03-13T18:50:13.862Z,4.16
2019-03-13T18:52:46.938Z,4.10
2019-03-13T18:55:18.358Z,4.06
2019-03-13T18:57:54.580Z,4.00
2019-03-13T19:00:31.837Z,3.96
2019-03-13T19:03:07.995Z,3.90
2019-03-13T19:05:39.533Z,3.81
2019-03-13T19:08:13.990Z,3.73
2019-03-13T19:10:45.413Z,3.74
2019-03-13T19:13:16.932Z,3.75
2019-03-13T19:15:47.980Z,3.68
2019-03-13T19:18:19.416Z,3.66
2019-03-13T19:20:54.084Z,3.63
2019-03-13T19:23:33.822Z,3.64
2019-03-13T19:26:05.220Z,3.64
2019-03-13T19:28:42.875Z,3.61
2019-03-13T19:31:33.968Z,3.59
2019-03-13T19:34:07.005Z,3.60
2019-03-13T19:36:40.872Z,3.60
2019-03-13T19:39:13.658Z,3.60
2019-03-13T19:41:48.884Z,3.59
2019-03-13T19:44:27.248Z,3.60
2019-03-13T19:47:09.315Z,3.59
2019-03-13T19:49:44.447Z,3.61
2019-03-13T19:52:26.154Z,3.62
2019-03-13T19:54:59.254Z,3.64
2019-03-13T19:57:34.398Z,3.66
2019-03-13T20:00:07.497Z,3.68
2019-03-13T20:02:43.671Z,3.71
2019-03-13T20:05:22.992Z,3.73
2019-03-13T20:08:02.060Z,3.75
2019-03-13T20:10:38.780Z,3.75
2019-03-13T20:13:10.448Z,3.79
2019-03-13T20:15:50.671Z,3.79
2019-03-13T20:18:28.921Z,3.78
2019-03-13T20:21:06.728Z,3.80
2019-03-13T20:23:39.147Z,3.82
2019-03-13T20:26:10.675Z,3.83
2019-03-13T20:28:51.067Z,3.84
2019-03-13T20:31:33.029Z,3.86
2019-03-13T20:34:12.292Z,3.85
2019-03-13T20:36:52.625Z,3.86
2019-03-13T20:39:40.276Z,3.86
2019-03-13T20:42:16.779Z,3.86
2019-03-13T20:44:52.761Z,3.88
2019-03-13T20:47:31.922Z,3.88
2019-03-13T20:50:07.362Z,3.87
2019-03-13T20:52:45.857Z,3.88
2019-03-13T20:55:19.980Z,3.86
2019-03-13T20:57:53.838Z,3.85
2019-03-13T21:00:34.577Z,3.85
2019-03-13T21:03:33.057Z,3.84
2019-03-13T21:06:38.003Z,3.86
2019-03-13T21:09:10.030Z,3.86
2019-03-13T21:11:45.374Z,3.85
2019-03-13T21:14:26.428Z,3.85
2019-03-13T21:17:02.416Z,3.86
2019-03-13T21:19:36.957Z,3.87
2019-03-13T21:22:28.355Z,3.88
2019-03-13T21:25:01.796Z,3.89
2019-03-13T21:27:37.649Z,3.89
2019-03-13T21:30:14.994Z,3.86
2019-03-13T21:32:50.200Z,3.83
2019-03-13T21:35:22.874Z,3.79
2019-03-13T21:37:54.379Z,3.75
2019-03-13T21:40:32.041Z,3.69
2019-03-13T21:43:17.253Z,3.60
2019-03-13T21:45:52.202Z,3.54
2019-03-13T21:48:25.787Z,3.52
2019-03-13T21:50:58.554Z,3.46
2019-03-13T21:53:30.195Z,3.42
2019-03-13T21:56:01.783Z,3.40
2019-03-13T21:58:33.650Z,3.39
2019-03-13T22:01:19.677Z,3.37
2019-03-13T22:03:44.839Z,3.34
2019-03-13T22:06:28.581Z,3.35
2019-03-13T22:08:55.927Z,3.35
2019-03-13T22:11:27.581Z,3.35
2019-03-13T22:13:59.121Z,3.35
2019-03-13T22:16:30.328Z,3.37
2019-03-13T22:19:04.269Z,3.35
2019-03-13T22:21:36.938Z,3.34
2019-03-13T22:24:10.058Z,3.35
2019-03-13T22:26:44.388Z,3.35
2019-03-13T22:29:18.589Z,3.35
2019-03-13T22:31:50.486Z,3.33
2019-03-13T22:34:21.543Z,3.33
2019-03-13T22:36:52.959Z,3.31
2019-03-13T22:39:25.260Z,3.29
2019-03-13T22:41:56.648Z,3.29
2019-03-13T22:44:27.614Z,3.29
2019-03-13T22:46:58.553Z,3.30
2019-03-13T22:49:30.455Z,3.29
2019-03-13T22:52:04.068Z,3.29
2019-03-13T22:54:37.193Z,3.28
2019-03-13T22:57:14.405Z,3.27
2019-03-13T22:59:47.836Z,3.26
2019-03-13T23:02:20.162Z,3.25
2019-03-13T23:04:52.029Z,3.23
2019-03-13T23:07:26.012Z,3.23
2019-03-13T23:09:59.869Z,3.25
2019-03-13T23:12:34.204Z,3.26
2019-03-13T23:15:05.598Z,3.27
2019-03-13T23:17:36.640Z,3.24
2019-03-13T23:20:07.563Z,3.26
2019-03-13T23:22:40.087Z,3.27
2019-03-13T23:25:11.483Z,3.26
2019-03-13T23:27:42.412Z,3.22
2019-03-13T23:30:13.513Z,3.23
2019-03-13T23:33:05.308Z,3.23
2019-03-13T23:35:40.636Z,3.20
2019-03-13T23:38:14.610Z,3.19
2019-03-13T23:41:01.246Z,3.15
2019-03-13T23:43:32.072Z,3.12
2019-03-13T23:46:04.119Z,3.11
2019-03-13T23:48:35.259Z,3.05
2019-03-13T23:51:06.342Z,3.02
2019-03-13T23:53:37.455Z,3.02
2019-03-13T23:56:23.695Z,3.05
2019-03-13T23:59:02.646Z,3.06
